createdAt,value
2022-12-25T00:01:05.422Z,18
2022-12-25T00:16:04.789Z,20
2022-12-25T00:31:05.137Z,19
2022-12-25T00:46:04.816Z,32
2022-12-25T01:01:04.976Z,32
2022-12-25T01:16:04.496Z,31
2022-12-25T01:31:05.019Z,29
2022-12-25T01:46:04.984Z,30
2022-12-25T02:01:05.113Z,32
2022-12-25T02:16:05.676Z,31
2022-12-25T02:31:04.644Z,29
2022-12-25T02:46:04.603Z,28
2022-12-25T03:01:04.505Z,30
2022-12-25T03:16:04.996Z,31
2022-12-25T03:31:04.927Z,32
2022-12-25T03:46:04.990Z,32
2022-12-25T04:01:04.843Z,32
2022-12-25T04:16:05.220Z,30
2022-12-25T04:31:05.457Z,27
2022-12-25T04:46:05.413Z,26
2022-12-25T05:01:04.721Z,24
2022-12-25T05:16:04.598Z,27
2022-12-25T05:31:04.472Z,29
2022-12-25T05:46:05.395Z,30
2022-12-25T06:01:04.623Z,30
2022-12-25T06:16:05.252Z,37
2022-12-25T06:31:04.591Z,31
2022-12-25T06:46:04.641Z,34
2022-12-25T07:01:04.904Z,37
2022-12-25T07:16:05.130Z,47
2022-12-25T07:31:04.893Z,40
2022-12-25T07:46:05.216Z,35
2022-12-25T08:01:05.636Z,30
2022-12-25T08:16:05.412Z,34
2022-12-25T08:31:04.554Z,32
2022-12-25T08:46:05.416Z,26
2022-12-25T09:01:05.032Z,30
2022-12-25T09:16:04.835Z,19
2022-12-25T09:31:04.975Z,22
2022-12-25T09:46:05.312Z,22
2022-12-25T10:01:04.590Z,20
2022-12-25T10:16:05.308Z,18
2022-12-25T10:31:05.325Z,17
2022-12-25T10:46:05.128Z,15
2022-12-25T11:01:05.287Z,11
2022-12-25T11:16:04.506Z,12
2022-12-25T11:31:05.481Z,7
2022-12-25T11:46:05.139Z,8
2022-12-25T12:01:05.408Z,11
2022-12-25T12:16:05.221Z,8
2022-12-25T12:31:05.006Z,6
2022-12-25T12:46:05.265Z,7
2022-12-25T13:01:05.012Z,8
2022-12-25T13:16:05.327Z,6
2022-12-25T13:31:04.567Z,5
2022-12-25T13:46:04.671Z,6
2022-12-25T14:01:05.031Z,6
2022-12-25T14:16:04.602Z,7
2022-12-25T14:31:05.400Z,7
2022-12-25T14:46:04.890Z,7
2022-12-25T15:01:05.258Z,9
2022-12-25T15:16:05.116Z,13
2022-12-25T15:31:05.464Z,10
2022-12-25T15:46:05.860Z,9
2022-12-25T16:01:05.401Z,11
2022-12-25T16:16:05.053Z,39
2022-12-25T16:31:04.383Z,18
2022-12-25T16:46:05.386Z,15
2022-12-25T17:01:05.401Z,19
2022-12-25T17:16:04.946Z,23
2022-12-25T17:31:04.837Z,27
2022-12-25T17:46:04.770Z,28
2022-12-25T18:01:04.964Z,28
2022-12-25T18:16:04.725Z,32
2022-12-25T18:31:04.838Z,32
2022-12-25T18:46:04.786Z,29
2022-12-25T19:01:05.422Z,27
2022-12-25T19:16:05.107Z,30
2022-12-25T19:31:05.042Z,27
2022-12-25T19:46:04.958Z,28
2022-12-25T20:01:05.476Z,34
2022-12-25T20:16:05.544Z,32
2022-12-25T20:31:05.269Z,51
2022-12-25T20:46:04.630Z,31
2022-12-25T21:01:05.474Z,32
2022-12-25T21:16:04.742Z,34
2022-12-25T21:31:05.478Z,32
2022-12-25T21:46:05.673Z,67
2022-12-25T22:01:04.693Z,30
2022-12-25T22:16:04.615Z,29
2022-12-25T22:31:05.357Z,33
2022-12-25T22:46:05.534Z,24
2022-12-25T23:01:05.012Z,23
2022-12-25T23:16:05.207Z,24
2022-12-25T23:31:05.313Z,21
2022-12-25T23:46:05.419Z,24
